Time;durP1;ratioP1;P1;durP2;ratioP2;P2;SDS_P1;SDS_P2;PMS_P1;PMS_P2;Temp;Humidity;BMP_temperature;BMP_pressure;BME280_temperature;BME280_humidity;BME280_pressure;Samples;Min_cycle;Max_cycle;Signal;HPM_P1;HPM_P2
2023/01/24 00:00:40;;;;;;;4.53;2.92;;;21.20;64.40;;;;;;5091753;28;20028;-71
2023/01/24 00:03:11;;;;;;;5.32;3.38;;;21.30;64.70;;;;;;5091348;28;20093;-71
2023/01/24 00:05:43;;;;;;;7.70;4.55;;;21.10;64.80;;;;;;5091890;28;20035;-71
2023/01/24 00:08:12;;;;;;;5.22;3.40;;;21.10;64.90;;;;;;5091623;28;20051;-71
2023/01/24 00:10:38;;;;;;;4.80;3.50;;;21.20;64.80;;;;;;5091445;28;20036;-71
2023/01/24 00:13:05;;;;;;;5.40;3.53;;;21.30;64.80;;;;;;5091712;28;20047;-71
2023/01/24 00:15:32;;;;;;;4.13;3.28;;;21.30;64.70;;;;;;5090047;28;20043;-71
2023/01/24 00:17:58;;;;;;;4.40;3.83;;;21.30;64.90;;;;;;5091663;28;20085;-71
2023/01/24 00:20:25;;;;;;;3.92;2.95;;;21.30;64.60;;;;;;5091451;28;20093;-71
2023/01/24 00:22:50;;;;;;;4.13;3.15;;;21.30;64.70;;;;;;5091629;28;20032;-71
2023/01/24 00:25:16;;;;;;;3.80;2.85;;;21.20;64.50;;;;;;5091200;28;20093;-71
2023/01/24 00:27:42;;;;;;;7.00;3.15;;;21.30;64.60;;;;;;5091708;28;20115;-71
2023/01/24 00:30:09;;;;;;;4.78;3.25;;;21.30;64.70;;;;;;5090338;28;20035;-71
2023/01/24 00:32:35;;;;;;;3.97;3.03;;;21.20;64.50;;;;;;5091282;28;20485;-70
2023/01/24 00:35:01;;;;;;;4.60;3.10;;;21.20;64.60;;;;;;5090166;28;20036;-71
2023/01/24 00:37:27;;;;;;;4.90;2.60;;;21.20;64.50;;;;;;5091372;28;20118;-71
2023/01/24 00:39:53;;;;;;;5.68;3.45;;;21.10;64.90;;;;;;5090238;28;20107;-71
2023/01/24 00:42:19;;;;;;;4.93;3.40;;;21.20;64.40;;;;;;5089938;28;20480;-71
2023/01/24 00:44:45;;;;;;;4.72;3.22;;;21.20;64.60;;;;;;5091299;28;20026;-71
2023/01/24 00:47:11;;;;;;;4.72;3.05;;;21.20;64.80;;;;;;5090762;28;20032;-71
2023/01/24 00:49:37;;;;;;;5.13;3.10;;;21.10;64.80;;;;;;5089935;28;20043;-71
2023/01/24 00:52:03;;;;;;;4.05;2.85;;;21.10;64.80;;;;;;5090181;28;20056;-71
2023/01/24 00:54:29;;;;;;;5.43;3.92;;;21.00;64.80;;;;;;5090909;28;20511;-71
2023/01/24 00:56:55;;;;;;;6.35;3.90;;;21.00;64.90;;;;;;5089936;28;20067;-71
2023/01/24 00:59:21;;;;;;;8.82;4.60;;;21.00;64.90;;;;;;5089769;28;20032;-70
2023/01/24 01:01:47;;;;;;;5.32;4.10;;;21.10;65.50;;;;;;5089833;28;20024;-75
2023/01/24 01:04:13;;;;;;;10.07;5.07;;;21.00;65.20;;;;;;5072593;28;20043;-76
2023/01/24 01:06:39;;;;;;;7.30;4.35;;;21.00;64.90;;;;;;5090873;28;20078;-75
2023/01/24 01:09:06;;;;;;;6.03;4.05;;;21.00;64.70;;;;;;5091105;28;20426;-77
2023/01/24 01:11:32;;;;;;;6.00;3.70;;;21.10;64.70;;;;;;5090701;28;20036;-76
2023/01/24 01:13:58;;;;;;;4.55;3.97;;;21.20;64.70;;;;;;5092123;28;20036;-76
2023/01/24 01:16:24;;;;;;;5.07;3.35;;;21.00;64.50;;;;;;5092956;28;20039;-75
2023/01/24 01:18:54;;;;;;;5.55;3.42;;;21.10;64.50;;;;;;5094753;28;20040;-75
2023/01/24 01:21:21;;;;;;;4.78;3.05;;;21.10;64.40;;;;;;5093357;28;20039;-76
2023/01/24 01:23:48;;;;;;;4.65;3.58;;;21.20;64.50;;;;;;5094762;28;20128;-75
2023/01/24 01:26:17;;;;;;;4.97;3.60;;;21.20;64.20;;;;;;5093068;28;20028;-76
2023/01/24 01:28:44;;;;;;;5.38;2.80;;;21.10;64.30;;;;;;5094264;28;20032;-76
2023/01/24 01:31:10;;;;;;;6.28;3.20;;;21.20;64.30;;;;;;5094350;28;20024;-75
2023/01/24 01:33:36;;;;;;;8.90;3.20;;;21.20;64.20;;;;;;5094226;28;20379;-76
2023/01/24 01:36:02;;;;;;;5.40;3.50;;;21.10;64.30;;;;;;5091585;28;20110;-76
2023/01/24 01:38:31;;;;;;;5.90;3.13;;;21.10;64.30;;;;;;5058098;28;20043;-76
2023/01/24 01:40:58;;;;;;;5.55;3.67;;;21.10;64.50;;;;;;5074852;28;20048;-75
2023/01/24 01:43:27;;;;;;;5.97;3.65;;;21.00;64.70;;;;;;5074999;28;20062;-76
2023/01/24 01:46:05;;;;;;;5.07;3.50;;;21.10;64.50;;;;;;5091621;28;20055;-76
2023/01/24 01:48:42;;;;;;;5.82;3.60;;;20.90;64.50;;;;;;5074596;28;20129;-76
2023/01/24 01:51:12;;;;;;;5.70;3.28;;;21.00;64.50;;;;;;5091579;28;20075;-75
2023/01/24 01:53:47;;;;;;;6.53;3.67;;;20.90;64.90;;;;;;5074842;28;20498;-76
2023/01/24 01:56:25;;;;;;;5.47;3.45;;;20.90;64.60;;;;;;5091094;28;20062;-76
2023/01/24 01:58:52;;;;;;;7.30;4.00;;;20.90;64.50;;;;;;5091487;28;20495;-76
2023/01/24 02:01:18;;;;;;;6.65;4.53;;;20.90;64.80;;;;;;5091315;28;20036;-76
2023/01/24 02:03:57;;;;;;;7.43;4.28;;;21.00;64.60;;;;;;5091477;28;20480;-75
2023/01/24 02:06:42;;;;;;;4.80;3.67;;;21.00;64.70;;;;;;5091593;28;20051;-76
2023/01/24 02:09:09;;;;;;;6.60;4.10;;;21.00;64.70;;;;;;5093622;28;20048;-75
2023/01/24 02:11:38;;;;;;;6.47;3.72;;;21.00;64.60;;;;;;5075857;28;20494;-76
2023/01/24 02:16:50;;;;;;;5.55;3.78;;;20.90;64.40;;;;;;5093545;28;20036;-76
2023/01/24 02:20:18;;;;;;;7.30;4.40;;;20.70;64.30;;;;;;5093588;28;20051;-75
2023/01/24 02:22:53;;;;;;;8.25;4.88;;;21.00;64.20;;;;;;5030224;28;20056;-75
2023/01/24 02:25:37;;;;;;;6.97;4.40;;;21.00;64.20;;;;;;5013096;28;20044;-75
2023/01/24 02:28:05;;;;;;;6.88;3.97;;;21.00;63.90;;;;;;5030359;28;20068;-75
2023/01/24 02:30:31;;;;;;;7.32;4.18;;;20.90;64.10;;;;;;5013760;28;20059;-75
2023/01/24 02:32:58;;;;;;;5.95;4.28;;;20.80;64.20;;;;;;5014011;28;20534;-75
2023/01/24 02:35:30;;;;;;;8.68;5.10;;;20.80;64.20;;;;;;5029776;28;20048;-75
2023/01/24 02:38:03;;;;;;;7.50;4.53;;;20.80;64.10;;;;;;5013813;28;20041;-75
2023/01/24 02:40:29;;;;;;;11.18;4.78;;;20.80;64.10;;;;;;5013801;28;20042;-75
2023/01/24 02:43:02;;;;;;;5.65;3.90;;;20.80;64.10;;;;;;5014194;28;20049;-75
2023/01/24 02:45:31;;;;;;;8.02;4.60;;;20.80;64.00;;;;;;5013493;28;20372;-75
2023/01/24 02:47:57;;;;;;;7.55;4.60;;;20.70;63.90;;;;;;5014059;28;20068;-75
2023/01/24 02:50:26;;;;;;;5.35;4.22;;;20.70;63.90;;;;;;5030434;28;20029;-75
2023/01/24 02:58:05;;;;;;;6.78;4.80;;;20.80;64.00;;;;;;5090939;28;20044;-75
2023/01/24 02:58:26;;;;;;;7.38;4.78;;;20.80;63.80;;;;;;5091899;28;20349;-75
2023/01/24 03:00:52;;;;;;;7.97;4.75;;;20.70;63.70;;;;;;5091713;28;20115;-75
2023/01/24 03:03:18;;;;;;;7.85;4.82;;;20.80;63.40;;;;;;5092542;28;20079;-76
2023/01/24 03:05:56;;;;;;;7.30;4.95;;;20.80;63.40;;;;;;5090214;28;20078;-75
2023/01/24 03:08:27;;;;;;;7.75;4.70;;;20.90;63.40;;;;;;5091220;28;20428;-75
2023/01/24 03:10:56;;;;;;;9.77;5.15;;;20.70;63.30;;;;;;5091026;28;20036;-75
2023/01/24 03:35:28;;;;;;;8.70;5.80;;;20.70;62.50;;;;;;5090645;28;20035;-74
2023/01/24 03:40:39;;;;;;;8.85;6.32;;;20.70;62.40;;;;;;5090657;28;20078;-75
2023/01/24 03:43:05;;;;;;;10.13;6.68;;;20.70;62.50;;;;;;5092026;28;20036;-75
2023/01/24 03:45:37;;;;;;;7.72;5.47;;;20.60;62.40;;;;;;5090770;28;20028;-75
2023/01/24 03:48:09;;;;;;;9.57;5.88;;;20.50;62.50;;;;;;5090738;28;20024;-75
2023/01/24 03:53:29;;;;;;;8.27;5.75;;;20.70;62.60;;;;;;5090599;28;20104;-75
2023/01/24 03:56:01;;;;;;;11.85;6.43;;;20.70;62.30;;;;;;5090367;28;20427;-75
2023/01/24 03:58:31;;;;;;;8.25;5.40;;;20.60;62.10;;;;;;5090525;28;20032;-75
2023/01/24 04:00:58;;;;;;;9.00;5.88;;;20.80;62.10;;;;;;5090456;28;20036;-75
2023/01/24 04:03:44;;;;;;;9.68;6.00;;;20.70;62.10;;;;;;5091752;28;20040;-75
2023/01/24 04:06:11;;;;;;;8.80;6.25;;;20.80;61.80;;;;;;5090422;28;20067;-75
2023/01/24 04:08:37;;;;;;;8.65;5.28;;;20.60;61.70;;;;;;5073196;28;20117;-74
2023/01/24 04:11:04;;;;;;;7.45;5.43;;;20.80;62.00;;;;;;5090475;28;20060;-75
2023/01/24 04:13:30;;;;;;;7.18;5.25;;;20.60;61.80;;;;;;5090437;28;20468;-75
2023/01/24 04:15:58;;;;;;;10.00;6.32;;;20.60;62.10;;;;;;5090099;28;20031;-75
2023/01/24 04:18:38;;;;;;;10.25;6.72;;;20.70;62.30;;;;;;5089969;28;20032;-75
2023/01/24 04:21:05;;;;;;;7.85;5.40;;;20.70;62.00;;;;;;5089598;28;20043;-75
2023/01/24 04:23:32;;;;;;;10.70;5.57;;;20.80;62.10;;;;;;5090222;28;20032;-75
2023/01/24 04:26:00;;;;;;;13.25;6.55;;;20.70;61.90;;;;;;5090386;28;20655;-75
2023/01/24 04:28:31;;;;;;;10.95;6.43;;;20.70;61.80;;;;;;5090137;28;20028;-75
2023/01/24 04:31:01;;;;;;;8.25;5.95;;;20.70;62.00;;;;;;5090154;28;20040;-75
2023/01/24 04:33:50;;;;;;;9.30;6.07;;;20.70;61.90;;;;;;5090055;28;20096;-75
2023/01/24 04:36:16;;;;;;;7.22;4.72;;;20.70;61.80;;;;;;5090252;28;20036;-75
2023/01/24 04:38:43;;;;;;;12.40;6.45;;;20.70;61.60;;;;;;5090252;28;20035;-75
2023/01/24 04:41:20;;;;;;;8.98;5.60;;;20.70;61.60;;;;;;5089813;28;20467;-75
2023/01/24 04:43:46;;;;;;;9.52;4.85;;;20.70;61.70;;;;;;5090092;28;20111;-75
2023/01/24 04:46:12;;;;;;;11.30;4.75;;;20.60;62.40;;;;;;5089807;28;20195;-74
2023/01/24 04:48:56;;;;;;;11.05;5.15;;;20.80;61.30;;;;;;5092520;28;20111;-76
2023/01/24 04:51:33;;;;;;;8.98;5.47;;;21.10;60.50;;;;;;5093951;28;20023;-76
2023/01/24 04:54:02;;;;;;;7.05;4.50;;;21.20;59.90;;;;;;5077569;28;20043;-77
2023/01/24 04:56:29;;;;;;;11.73;5.75;;;21.30;59.90;;;;;;5093998;28;20071;-75
2023/01/24 04:58:57;;;;;;;9.65;5.72;;;21.30;59.70;;;;;;5093415;28;20036;-75
2023/01/24 05:01:24;;;;;;;9.27;6.40;;;21.40;59.90;;;;;;5094052;28;20349;-72
2023/01/24 05:04:06;;;;;;;8.93;6.28;;;21.40;59.30;;;;;;5093847;28;20043;-73
2023/01/24 05:06:33;;;;;;;9.55;6.22;;;21.20;60.20;;;;;;5093793;28;20031;-74
2023/01/24 05:08:59;;;;;;;9.45;6.57;;;21.20;63.60;;;;;;5093637;28;20110;-74
2023/01/24 05:11:36;;;;;;;15.30;11.00;;;21.50;65.00;;;;;;5093789;28;20032;-73
2023/01/24 05:14:03;;;;;;;18.83;12.43;;;21.70;65.50;;;;;;5093864;28;20032;-71
2023/01/24 05:16:29;;;;;;;24.73;14.07;;;21.80;65.40;;;;;;5093514;28;20054;-74
2023/01/24 05:18:55;;;;;;;36.20;14.98;;;22.00;66.60;;;;;;5093157;28;20055;-74
2023/01/24 05:21:21;;;;;;;34.85;14.00;;;22.20;62.70;;;;;;5093014;28;20044;-76
2023/01/24 05:23:51;;;;;;;28.08;11.80;;;22.40;57.90;;;;;;5093049;28;20036;-74
2023/01/24 05:26:21;;;;;;;19.58;8.50;;;22.40;55.00;;;;;;5076112;28;20076;-77
2023/01/24 05:28:49;;;;;;;11.32;6.25;;;22.60;58.10;;;;;;5091381;28;20040;-78
2023/01/24 05:31:16;;;;;;;20.02;5.90;;;22.70;49.90;;;;;;5075182;28;20044;-72
2023/01/24 05:33:42;;;;;;;15.55;10.20;;;22.70;47.50;;;;;;5074671;28;20040;-77
2023/01/24 05:36:13;;;;;;;16.48;9.85;;;22.70;46.60;;;;;;5051017;28;20048;-75
2023/01/24 05:38:41;;;;;;;18.55;11.05;;;22.60;47.50;;;;;;5051228;28;20059;-77
2023/01/24 05:41:10;;;;;;;15.32;8.95;;;22.40;47.90;;;;;;5051285;28;20076;-76
2023/01/24 05:43:37;;;;;;;17.23;10.38;;;22.40;48.50;;;;;;5051283;28;20069;-76
2023/01/24 05:46:06;;;;;;;14.13;8.95;;;22.50;49.70;;;;;;5034527;28;20041;-75
2023/01/24 05:48:38;;;;;;;16.85;9.13;;;22.40;50.60;;;;;;5033724;28;20041;-76
2023/01/24 05:51:06;;;;;;;23.88;11.43;;;22.50;51.10;;;;;;5034516;28;20029;-75
2023/01/24 05:53:35;;;;;;;13.57;9.18;;;22.40;56.20;;;;;;5051112;28;20486;-75
2023/01/24 05:56:04;;;;;;;14.02;8.13;;;22.60;55.10;;;;;;5051253;28;20033;-74
2023/01/24 05:58:35;;;;;;;13.07;7.72;;;22.60;50.50;;;;;;5034438;28;20036;-73
2023/01/24 06:01:18;;;;;;;17.80;7.72;;;22.60;47.60;;;;;;5053166;28;20043;-74
2023/01/24 06:03:47;;;;;;;10.82;6.32;;;22.50;49.40;;;;;;5054525;28;20119;-74
2023/01/24 06:06:14;;;;;;;16.60;9.20;;;22.50;49.00;;;;;;5054273;28;20045;-76
2023/01/24 06:08:42;;;;;;;10.73;6.82;;;22.50;53.30;;;;;;5053946;28;20056;-74
2023/01/24 06:11:17;;;;;;;9.55;6.25;;;22.60;46.40;;;;;;5054270;28;20098;-74
2023/01/24 06:13:44;;;;;;;10.93;7.88;;;22.50;45.00;;;;;;5065559;28;20047;-77
2023/01/24 06:16:23;;;;;;;9.95;6.90;;;22.50;44.80;;;;;;5092156;28;20424;-74
2023/01/24 06:18:50;;;;;;;12.95;7.22;;;22.40;46.60;;;;;;5074326;28;20687;-77
2023/01/24 06:21:22;;;;;;;13.88;7.28;;;22.50;54.00;;;;;;5092520;28;20036;-75
2023/01/24 06:23:48;;;;;;;7.38;4.53;;;22.70;48.90;;;;;;5092326;28;20066;-75
2023/01/24 06:26:15;;;;;;;8.05;5.75;;;22.70;47.30;;;;;;5092198;28;20040;-76
2023/01/24 06:28:41;;;;;;;9.05;5.97;;;22.80;48.30;;;;;;5093512;28;20043;-74
2023/01/24 06:31:54;;;;;;;10.15;6.25;;;22.90;48.90;;;;;;5091984;28;20121;-76
2023/01/24 06:35:10;;;;;;;8.85;6.38;;;22.90;47.10;;;;;;4991052;28;20038;-77
2023/01/24 06:37:49;;;;;;;8.85;7.03;;;23.00;47.40;;;;;;4971845;28;20083;-78
2023/01/24 06:40:19;;;;;;;10.55;7.35;;;22.80;47.20;;;;;;4971751;28;20093;-76
2023/01/24 06:42:46;;;;;;;9.25;6.28;;;22.90;48.00;;;;;;4971641;28;20046;-74
2023/01/24 06:45:12;;;;;;;9.20;7.28;;;22.90;45.50;;;;;;4971599;28;20043;-78
2023/01/24 06:47:39;;;;;;;8.85;6.72;;;22.90;46.70;;;;;;4971593;28;20047;-74
2023/01/24 06:50:07;;;;;;;8.57;6.47;;;22.80;46.30;;;;;;4971540;28;20062;-74
2023/01/24 06:52:34;;;;;;;8.70;6.10;;;23.00;45.80;;;;;;4971282;28;20061;-74
2023/01/24 06:55:00;;;;;;;9.07;6.35;;;22.90;54.30;;;;;;4971418;28;20047;-74
2023/01/24 06:57:26;;;;;;;9.70;5.25;;;23.00;55.30;;;;;;4970929;28;20569;-77
2023/01/24 06:59:52;;;;;;;7.03;4.55;;;23.00;55.60;;;;;;4971186;28;20126;-74
2023/01/24 07:02:18;;;;;;;6.05;3.33;;;23.00;55.10;;;;;;4971440;28;20042;-74
2023/01/24 07:04:44;;;;;;;7.05;4.50;;;23.10;54.50;;;;;;4970948;28;20061;-77
2023/01/24 07:07:10;;;;;;;12.70;7.50;;;23.20;52.90;;;;;;4971415;28;20098;-76
2023/01/24 07:09:36;;;;;;;11.85;6.82;;;23.10;52.80;;;;;;4987188;28;20042;-76
2023/01/24 07:12:02;;;;;;;13.00;6.15;;;23.00;52.20;;;;;;5008951;28;20049;-76
2023/01/24 07:14:28;;;;;;;10.95;7.03;;;22.90;52.30;;;;;;5072297;28;20045;-74
2023/01/24 07:16:55;;;;;;;10.20;6.25;;;22.80;52.90;;;;;;5072415;28;20093;-75
2023/01/24 07:19:24;;;;;;;13.30;7.63;;;22.80;54.70;;;;;;5072154;28;20481;-75
2023/01/24 07:21:56;;;;;;;9.65;6.43;;;22.70;54.70;;;;;;5071880;28;20033;-75
2023/01/24 07:24:25;;;;;;;10.18;5.38;;;22.50;53.50;;;;;;5069600;28;20554;-75
2023/01/24 07:26:53;;;;;;;9.88;6.38;;;22.20;55.30;;;;;;5085808;28;20039;-76
2023/01/24 07:29:20;;;;;;;12.15;5.68;;;22.10;56.10;;;;;;5092493;28;20024;-75
2023/01/24 07:31:49;;;;;;;11.63;5.95;;;22.10;56.70;;;;;;5089412;28;20064;-75
2023/01/24 07:34:16;;;;;;;6.85;4.72;;;22.00;59.80;;;;;;5089577;28;20485;-73
2023/01/24 07:36:43;;;;;;;6.15;4.88;;;22.00;59.10;;;;;;5072643;28;20052;-76
2023/01/24 07:39:09;;;;;;;7.07;4.40;;;22.10;59.70;;;;;;5089335;28;20115;-76
2023/01/24 07:41:36;;;;;;;6.10;4.35;;;22.30;58.60;;;;;;5071921;28;20035;-75
2023/01/24 07:44:04;;;;;;;11.00;5.22;;;22.40;57.60;;;;;;5089559;28;20481;-76
2023/01/24 07:46:33;;;;;;;8.95;4.47;;;22.70;57.20;;;;;;5072345;28;20089;-75
2023/01/24 07:49:00;;;;;;;8.80;5.03;;;22.70;56.90;;;;;;5089378;28;20054;-75
2023/01/24 07:51:27;;;;;;;7.72;3.85;;;22.70;56.20;;;;;;5072610;28;20040;-75
2023/01/24 07:53:53;;;;;;;7.22;4.43;;;22.80;55.30;;;;;;5089194;28;20089;-76
2023/01/24 07:56:19;;;;;;;7.85;5.60;;;22.80;55.00;;;;;;5089139;28;20047;-76
2023/01/24 07:58:45;;;;;;;8.70;5.97;;;23.00;53.40;;;;;;5089261;28;20040;-76
2023/01/24 08:01:18;;;;;;;10.07;5.82;;;22.80;54.10;;;;;;5089103;28;20489;-73
2023/01/24 08:03:45;;;;;;;10.15;5.47;;;22.50;54.70;;;;;;5089166;28;20083;-75
2023/01/24 08:06:11;;;;;;;8.60;4.82;;;22.30;55.80;;;;;;5072112;28;20561;-74
2023/01/24 08:08:37;;;;;;;9.15;4.90;;;22.10;56.50;;;;;;5074090;28;20055;-70
2023/01/24 08:11:03;;;;;;;7.80;5.28;;;22.10;57.70;;;;;;5092045;28;20024;-75
2023/01/24 08:13:29;;;;;;;6.43;4.63;;;22.10;58.20;;;;;;5091646;28;20181;-76
2023/01/24 08:15:55;;;;;;;6.28;4.20;;;22.10;58.00;;;;;;5091509;28;20043;-77
2023/01/24 08:18:21;;;;;;;10.00;4.70;;;22.10;58.90;;;;;;5091397;28;20032;-75
2023/01/24 08:20:48;;;;;;;9.35;5.15;;;22.10;58.90;;;;;;5091424;28;20475;-74
2023/01/24 08:23:14;;;;;;;11.00;6.82;;;22.10;59.60;;;;;;5091158;28;20114;-76
2023/01/24 08:25:40;;;;;;;10.60;5.68;;;22.00;60.00;;;;;;5090109;28;20123;-74
2023/01/24 08:28:06;;;;;;;10.00;5.90;;;21.80;59.60;;;;;;5091651;28;20111;-72
2023/01/24 08:30:32;;;;;;;7.05;4.50;;;21.80;60.60;;;;;;5091110;28;20162;-73
2023/01/24 08:33:03;;;;;;;8.93;5.03;;;21.80;60.40;;;;;;5091343;28;20082;-73
2023/01/24 08:35:30;;;;;;;6.93;4.85;;;21.80;61.30;;;;;;5091449;28;20035;-75
2023/01/24 08:37:56;;;;;;;8.02;4.95;;;21.80;61.40;;;;;;5091578;28;20387;-77
2023/01/24 08:40:23;;;;;;;8.57;4.88;;;22.00;60.70;;;;;;5091064;28;20059;-80
2023/01/24 08:42:49;;;;;;;6.72;5.40;;;22.00;61.00;;;;;;5091284;28;20056;-79
2023/01/24 08:45:15;;;;;;;8.82;5.43;;;21.80;61.40;;;;;;5091085;28;20058;-77
2023/01/24 08:47:41;;;;;;;8.30;5.28;;;22.10;65.10;;;;;;5091203;28;20077;-80
2023/01/24 08:50:08;;;;;;;6.57;4.90;;;22.60;53.80;;;;;;5091199;28;20047;-79
2023/01/24 08:52:34;;;;;;;4.88;3.78;;;22.90;52.90;;;;;;5100299;28;20032;-83
2023/01/24 08:55:00;;;;;;;12.90;5.68;;;23.10;50.80;;;;;;5091074;28;20035;-78
2023/01/24 08:57:26;;;;;;;8.77;5.50;;;23.10;49.30;;;;;;5091313;28;20034;-78
2023/01/24 08:59:53;;;;;;;6.10;4.63;;;23.20;55.40;;;;;;5101214;28;20058;-80
2023/01/24 09:02:19;;;;;;;10.07;5.00;;;23.20;57.10;;;;;;5111319;28;20016;-77
2023/01/24 09:04:45;;;;;;;8.02;5.15;;;22.90;58.20;;;;;;5111434;28;20145;-75
2023/01/24 09:07:11;;;;;;;8.63;5.50;;;22.90;59.60;;;;;;5111721;28;20102;-75
2023/01/24 09:09:37;;;;;;;7.95;5.32;;;22.90;62.40;;;;;;5074536;28;20066;-77
2023/01/24 09:12:04;;;;;;;8.57;5.57;;;22.60;63.90;;;;;;5090839;28;20035;-78
2023/01/24 09:14:30;;;;;;;10.75;6.05;;;22.60;63.20;;;;;;5090907;28;20658;-77
2023/01/24 09:16:55;;;;;;;8.52;5.32;;;22.50;62.70;;;;;;5090903;28;20032;-77
2023/01/24 09:19:23;;;;;;;7.78;5.63;;;22.50;63.20;;;;;;5089518;28;20073;-79
2023/01/24 09:21:51;;;;;;;10.60;5.38;;;22.50;63.20;;;;;;5091036;28;20040;-78
2023/01/24 09:24:18;;;;;;;7.35;5.03;;;22.50;63.40;;;;;;5090976;28;20032;-77
2023/01/24 09:26:45;;;;;;;10.65;5.80;;;22.30;63.60;;;;;;5111086;28;20031;-79
2023/01/24 09:29:11;;;;;;;9.27;6.53;;;22.30;63.50;;;;;;5111172;28;20063;-76
2023/01/24 09:31:37;;;;;;;9.55;5.82;;;22.30;63.20;;;;;;5098533;28;20044;-78
2023/01/24 09:34:03;;;;;;;7.78;5.38;;;22.20;63.60;;;;;;5090928;28;20040;-77
2023/01/24 09:36:29;;;;;;;8.77;6.07;;;22.20;63.60;;;;;;5094084;28;20036;-81
2023/01/24 09:38:56;;;;;;;17.42;7.07;;;22.00;64.20;;;;;;5094636;28;20032;-78
2023/01/24 09:41:51;;;;;;;12.52;5.75;;;22.10;64.50;;;;;;5094164;28;20036;-78
2023/01/24 09:44:17;;;;;;;10.23;6.40;;;22.20;64.80;;;;;;5094582;28;20032;-74
2023/01/24 09:46:48;;;;;;;9.55;7.05;;;22.10;66.00;;;;;;5094239;28;20457;-76
2023/01/24 09:49:40;;;;;;;8.68;5.43;;;22.50;60.50;;;;;;5094507;28;20055;-75
2023/01/24 09:52:12;;;;;;;23.70;9.43;;;22.90;57.80;;;;;;5031303;28;20390;-82
2023/01/24 09:54:52;;;;;;;21.80;9.65;;;23.20;53.40;;;;;;5014302;28;20375;-78
2023/01/24 09:57:30;;;;;;;16.42;9.50;;;23.60;53.70;;;;;;5030945;28;20669;-80
2023/01/24 10:00:12;;;;;;;18.98;11.73;;;23.70;47.40;;;;;;5030695;28;20041;-82
2023/01/24 10:02:39;;;;;;;13.88;9.40;;;23.80;47.80;;;;;;5030918;28;20049;-83
2023/01/24 10:05:11;;;;;;;12.95;8.55;;;23.90;46.40;;;;;;5030631;28;20084;-78
2023/01/24 10:07:56;;;;;;;7.32;4.38;;;24.00;44.90;;;;;;5030602;28;20042;-77
2023/01/24 10:10:46;;;;;;;10.98;7.32;;;24.00;47.40;;;;;;5030962;28;20580;-77
2023/01/24 10:13:56;;;;;;;11.45;7.25;;;24.20;50.50;;;;;;5030789;28;20053;-76
2023/01/24 10:16:45;;;;;;;11.52;7.32;;;24.10;52.30;;;;;;5030799;28;20137;-77
2023/01/24 10:19:32;;;;;;;9.85;6.88;;;24.10;53.80;;;;;;5031104;28;20521;-75
2023/01/24 10:22:35;;;;;;;9.73;6.75;;;24.00;54.50;;;;;;5031005;28;20080;-77
2023/01/24 10:25:14;;;;;;;12.90;6.82;;;23.90;55.40;;;;;;5030951;28;20525;-76
2023/01/24 10:27:44;;;;;;;8.93;6.78;;;23.80;56.40;;;;;;5030557;28;20040;-77
2023/01/24 10:30:31;;;;;;;12.25;6.38;;;23.70;57.20;;;;;;5071142;28;20052;-78
2023/01/24 10:33:03;;;;;;;11.27;7.28;;;23.70;58.00;;;;;;5073014;28;20028;-77
2023/01/24 10:35:38;;;;;;;14.73;7.07;;;23.60;58.80;;;;;;5088609;28;20048;-76
2023/01/24 10:38:09;;;;;;;11.73;7.28;;;23.50;59.20;;;;;;5073103;28;20029;-78
2023/01/24 10:40:50;;;;;;;12.55;7.28;;;23.50;59.50;;;;;;5073089;28;20040;-78
2023/01/24 10:43:17;;;;;;;9.48;6.80;;;23.60;58.90;;;;;;5073158;28;20040;-77
2023/01/24 10:46:34;;;;;;;13.10;8.40;;;23.70;62.10;;;;;;5073130;28;20489;-75
2023/01/24 10:49:02;;;;;;;21.75;5.60;;;23.70;51.10;;;;;;4997325;28;20048;-76
2023/01/24 10:51:28;;;;;;;22.30;7.82;;;23.90;48.10;;;;;;5030214;28;20486;-76
2023/01/24 10:54:01;;;;;;;9.10;5.55;;;24.00;45.40;;;;;;5030213;28;20040;-78
2023/01/24 10:56:27;;;;;;;;;;;24.10;43.40;;;;;;5030079;28;20157;-77
2023/01/24 10:59:00;;;;;;;11.20;7.47;;;24.10;54.40;;;;;;5029456;28;19921;-76
2023/01/24 11:01:59;;;;;;;12.55;7.38;;;24.10;56.70;;;;;;5046038;28;20037;-77
2023/01/24 11:04:29;;;;;;;9.10;6.25;;;24.20;57.30;;;;;;4935866;29;20151;-78
2023/01/24 11:06:56;;;;;;;10.32;5.90;;;24.10;58.00;;;;;;4953592;28;20043;-78
2023/01/24 11:09:30;;;;;;;9.98;6.72;;;24.00;58.20;;;;;;4967770;28;20078;-77
2023/01/24 11:11:58;;;;;;;8.13;5.70;;;23.80;58.10;;;;;;4951904;29;20139;-78
2023/01/24 11:14:31;;;;;;;8.95;6.03;;;23.90;58.60;;;;;;4951661;29;20054;-76
2023/01/24 11:16:59;;;;;;;9.30;5.82;;;23.80;58.60;;;;;;4951872;29;20035;-78
2023/01/24 11:19:29;;;;;;;18.05;8.77;;;23.80;59.30;;;;;;4965584;28;20054;-77
2023/01/24 11:22:01;;;;;;;6.63;5.13;;;24.10;59.90;;;;;;4990512;28;20051;-80
2023/01/24 11:24:28;;;;;;;8.63;5.45;;;24.60;56.10;;;;;;4990343;28;20110;-77
2023/01/24 11:27:01;;;;;;;11.30;9.02;;;24.60;43.20;;;;;;4990810;28;20052;-80
2023/01/24 11:29:27;;;;;;;;;;;24.50;40.80;;;;;;4991046;28;20042;-78
2023/01/24 11:32:20;;;;;;;9.93;8.38;;;24.40;39.70;;;;;;4990236;28;19914;-76
2023/01/24 11:35:01;;;;;;;11.00;6.95;;;24.30;41.30;;;;;;4990397;28;20116;-77
2023/01/24 11:37:33;;;;;;;7.15;5.43;;;24.30;47.00;;;;;;4973926;28;20046;-80
2023/01/24 11:40:34;;;;;;;11.38;7.28;;;24.30;47.90;;;;;;5010925;28;20374;-77
2023/01/24 11:43:00;;;;;;;12.77;6.85;;;24.40;51.90;;;;;;5056505;28;20474;-76
2023/01/24 11:45:51;;;;;;;11.18;7.38;;;24.60;57.00;;;;;;5071922;28;20028;-75
2023/01/24 11:48:22;;;;;;;11.43;7.75;;;24.60;57.20;;;;;;5071889;28;20071;-78
2023/01/24 11:51:16;;;;;;;11.48;8.25;;;24.50;57.10;;;;;;5071662;28;20056;-79
2023/01/24 11:54:03;;;;;;;16.20;8.95;;;24.40;57.20;;;;;;5072053;28;20431;-76
2023/01/24 11:56:38;;;;;;;16.23;8.48;;;24.30;57.60;;;;;;5051287;28;20132;-76
2023/01/24 11:59:10;;;;;;;14.02;7.32;;;24.30;58.10;;;;;;5033142;28;20037;-76
2023/01/24 12:02:05;;;;;;;15.73;8.20;;;24.20;58.70;;;;;;5031608;28;20033;-77
2023/01/24 12:05:28;;;;;;;14.10;8.70;;;24.30;58.70;;;;;;5041418;28;20071;-78
2023/01/24 12:08:32;;;;;;;14.45;8.32;;;24.10;59.10;;;;;;5030677;28;20110;-77
2023/01/24 12:10:58;;;;;;;11.80;6.57;;;24.00;59.40;;;;;;5048790;28;20033;-76
2023/01/24 12:13:26;;;;;;;15.25;8.32;;;23.90;59.50;;;;;;5048810;28;20040;-77
2023/01/24 12:16:19;;;;;;;14.57;9.35;;;24.00;59.60;;;;;;5057447;28;20104;-76
2023/01/24 12:18:48;;;;;;;13.18;8.18;;;24.00;59.90;;;;;;5051891;28;20064;-78
2023/01/24 12:21:14;;;;;;;15.15;8.63;;;24.00;60.10;;;;;;5068236;28;20103;-79
2023/01/24 12:23:48;;;;;;;10.95;7.25;;;23.90;60.20;;;;;;5068476;28;20094;-78
2023/01/24 12:26:24;;;;;;;14.23;8.13;;;23.80;60.80;;;;;;5068441;28;20044;-78
2023/01/24 12:29:14;;;;;;;8.52;5.55;;;23.90;61.00;;;;;;5068772;28;20127;-76
2023/01/24 12:31:49;;;;;;;15.30;9.18;;;23.90;61.10;;;;;;5028630;28;20491;-78
2023/01/24 12:34:33;;;;;;;19.15;10.13;;;23.90;60.80;;;;;;5028834;28;20053;-76
2023/01/24 12:37:21;;;;;;;18.80;10.45;;;24.00;60.60;;;;;;5012302;28;20111;-76
2023/01/24 12:40:07;;;;;;;15.65;8.57;;;23.90;61.10;;;;;;5028883;28;20072;-76
2023/01/24 12:42:55;;;;;;;11.82;7.88;;;23.60;61.80;;;;;;5046135;28;20083;-76
2023/01/24 12:45:42;;;;;;;14.25;9.73;;;23.50;62.70;;;;;;5050049;28;20047;-76
2023/01/24 12:48:50;;;;;;;17.13;9.35;;;23.40;63.00;;;;;;5050106;28;20036;-77
2023/01/24 12:51:39;;;;;;;14.32;7.90;;;23.30;63.40;;;;;;5027534;28;20042;-77
2023/01/24 12:54:16;;;;;;;15.43;9.40;;;23.30;63.80;;;;;;5028660;28;20343;-76
2023/01/24 12:57:03;;;;;;;14.15;7.32;;;23.20;63.10;;;;;;5028625;28;20049;-78
2023/01/24 12:59:32;;;;;;;14.10;7.63;;;23.20;63.20;;;;;;5028440;28;20054;-78
2023/01/24 13:02:22;;;;;;;13.77;6.72;;;23.20;63.00;;;;;;5011473;28;20056;-77
2023/01/24 13:05:00;;;;;;;12.73;8.75;;;23.20;63.60;;;;;;5011566;28;20045;-78
2023/01/24 13:07:56;;;;;;;14.07;7.80;;;23.20;63.00;;;;;;5025717;28;20107;-79
2023/01/24 13:10:57;;;;;;;12.98;8.07;;;23.30;64.90;;;;;;5030280;28;20047;-81
2023/01/24 13:13:31;;;;;;;12.43;7.63;;;23.20;66.20;;;;;;5032647;28;20596;-79
2023/01/24 13:16:33;;;;;;;11.57;7.63;;;23.10;65.50;;;;;;5032340;28;20045;-78
2023/01/24 13:19:24;;;;;;;17.15;8.32;;;23.00;65.40;;;;;;5036614;28;20045;-80
2023/01/24 13:22:18;;;;;;;16.00;7.30;;;23.00;65.00;;;;;;5031742;28;20053;-77
2023/01/24 13:24:49;;;;;;;12.95;7.75;;;23.00;65.10;;;;;;5016152;28;20043;-79
2023/01/24 13:27:29;;;;;;;12.15;7.35;;;23.00;65.60;;;;;;5034597;28;20104;-77
2023/01/24 13:30:34;;;;;;;14.75;8.95;;;22.80;65.90;;;;;;5074710;28;20458;-77
2023/01/24 13:33:02;;;;;;;11.27;7.65;;;22.90;65.30;;;;;;5051753;28;20040;-75
2023/01/24 13:35:29;;;;;;;14.38;7.95;;;22.90;65.70;;;;;;5035491;28;20076;-77
2023/01/24 13:38:16;;;;;;;12.23;8.07;;;22.90;65.50;;;;;;5051999;28;20070;-77
2023/01/24 13:41:15;;;;;;;13.85;8.10;;;22.90;66.20;;;;;;5035160;28;20029;-77
2023/01/24 13:43:47;;;;;;;12.00;7.90;;;22.90;65.90;;;;;;5040536;28;20060;-77